Time;durP1;ratioP1;P1;durP2;ratioP2;P2;SDS_P1;SDS_P2;PMS_P1;PMS_P2;Temp;Humidity;BMP_temperature;BMP_pressure;BME280_temperature;BME280_humidity;BME280_pressure;Samples;Min_cycle;Max_cycle;Signal;HPM_P1;HPM_P2
2022/08/15 00:00:41;;;;;;;16.05;14.53;;;;;;;20.60;73.76;100179.45;1673828;83;20913;-79
2022/08/15 00:03:32;;;;;;;15.58;13.98;;;;;;;20.62;73.78;100178.89;1670384;83;21458;-79
2022/08/15 00:06:22;;;;;;;20.15;15.30;;;;;;;20.53;73.61;100179.95;1687672;83;20933;-79
2022/08/15 00:09:20;;;;;;;19.10;16.07;;;;;;;20.48;73.64;100183.71;1671839;83;20914;-79
2022/08/15 00:12:05;;;;;;;19.80;14.93;;;;;;;20.36;73.64;100184.45;1673476;83;20921;-79
2022/08/15 00:14:51;;;;;;;18.62;16.30;;;;;;;20.33;73.79;100191.69;1681252;83;20943;-79
2022/08/15 00:17:36;;;;;;;21.65;16.12;;;;;;;20.32;73.84;100184.27;1677815;83;21794;-81
2022/08/15 00:20:21;;;;;;;16.62;15.05;;;;;;;20.32;73.88;100191.31;1693711;83;21067;-81
2022/08/15 00:23:17;;;;;;;18.87;15.90;;;;;;;20.31;73.91;100189.63;1665847;84;20946;-81
2022/08/15 00:26:03;;;;;;;17.13;15.10;;;;;;;20.32;73.99;100186.91;1673952;83;21458;-81
2022/08/15 00:28:48;;;;;;;;;;;;;;;20.30;73.99;100179.59;1688170;83;21890;-81
2022/08/15 00:31:33;;;;;;;16.93;15.25;;;;;;;20.30;74.52;100180.06;1677027;83;20127;-81
2022/08/15 00:34:18;;;;;;;17.00;15.08;;;;;;;20.29;74.01;100186.25;1691653;83;20921;-81
2022/08/15 00:37:05;;;;;;;21.55;16.35;;;;;;;20.25;74.06;100185.63;1678109;83;20969;-81
2022/08/15 00:39:50;;;;;;;20.48;16.37;;;;;;;20.23;74.07;100184.04;1684861;83;21391;-81
2022/08/15 00:42:36;;;;;;;21.48;16.15;;;;;;;20.16;74.11;100183.11;1680790;83;21809;-81
2022/08/15 00:45:23;;;;;;;20.70;15.90;;;;;;;20.21;74.23;100180.20;1683040;83;20957;-81
2022/08/15 00:51:25;;;;;;;17.10;15.50;;;;;;;20.23;74.29;100173.07;1675670;83;20929;-81
2022/08/15 00:54:21;;;;;;;19.50;16.82;;;;;;;20.11;74.13;100179.92;1682725;83;20894;-81
2022/08/15 00:57:21;;;;;;;;;;;;;;;20.09;74.25;100169.99;1700606;83;20946;-82
2022/08/15 01:00:12;;;;;;;17.95;16.20;;;;;;;20.01;74.73;100175.34;1648352;85;20544;-82
2022/08/15 01:03:00;;;;;;;18.98;16.97;;;;;;;20.02;74.44;100178.34;1651740;85;20985;-82
2022/08/15 01:05:49;;;;;;;20.77;16.02;;;;;;;20.03;74.34;100183.97;1646704;85;20903;-81
2022/08/15 01:08:38;;;;;;;20.20;17.60;;;;;;;19.99;74.45;100186.41;1635651;84;21485;-81
2022/08/15 01:11:31;;;;;;;18.85;16.95;;;;;;;20.01;74.51;100179.28;1645357;85;21820;-81
2022/08/15 01:14:18;;;;;;;20.50;17.07;;;;;;;20.05;74.54;100180.78;1651137;85;20965;-81
2022/08/15 01:17:05;;;;;;;19.05;17.30;;;;;;;20.07;74.56;100173.65;1669210;85;20964;-81
2022/08/15 01:19:58;;;;;;;19.23;16.95;;;;;;;20.05;74.57;100174.22;1643916;85;21368;-82
2022/08/15 01:23:24;;;;;;;22.95;18.10;;;;;;;20.05;74.55;100175.06;1629596;86;21929;-82
2022/08/15 01:26:09;;;;;;;19.12;17.05;;;;;;;20.04;74.62;100177.78;1650079;84;20938;-82
2022/08/15 01:28:55;;;;;;;21.60;17.37;;;;;;;20.06;74.62;100173.28;1625561;86;20980;-82
2022/08/15 01:31:40;;;;;;;19.10;17.17;;;;;;;20.05;74.68;100178.16;1641760;85;20924;-82
2022/08/15 01:34:25;;;;;;;18.35;16.02;;;;;;;20.05;74.77;100170.28;1653681;85;21408;-82
2022/08/15 01:37:11;;;;;;;18.37;16.70;;;;;;;20.04;74.62;100178.63;1651713;85;20951;-81
2022/08/15 01:40:04;;;;;;;18.55;16.57;;;;;;;20.01;74.68;100181.91;1652420;84;20943;-81
2022/08/15 01:42:50;;;;;;;20.20;17.35;;;;;;;19.97;74.74;100189.13;1630757;86;20908;-81
2022/08/15 01:45:37;;;;;;;20.20;18.12;;;;;;;19.95;74.68;100186.22;1649212;85;21420;-81
2022/08/15 01:48:33;;;;;;;21.37;17.20;;;;;;;19.95;74.93;100183.59;1641676;85;20883;-81
2022/08/15 01:51:18;;;;;;;22.52;17.37;;;;;;;19.91;74.81;100179.00;1632914;86;20954;-81
2022/08/15 01:54:12;;;;;;;19.30;17.23;;;;;;;19.83;74.67;100174.22;1669247;85;21456;-81
2022/08/15 01:56:57;;;;;;;19.30;17.30;;;;;;;19.82;74.93;100178.25;1626504;86;20984;-81
2022/08/15 01:59:42;;;;;;;20.77;18.57;;;;;;;19.83;74.90;100170.75;1641705;85;20940;-81
2022/08/15 02:02:28;;;;;;;20.60;18.50;;;;;;;19.83;75.00;100163.73;1620684;86;21772;-81
2022/08/15 02:05:13;;;;;;;22.07;18.02;;;;;;;19.86;75.03;100156.61;1656776;84;26798;-81
2022/08/15 02:07:59;;;;;;;22.10;17.52;;;;;;;19.86;75.04;100156.14;1626656;86;20912;-81
2022/08/15 02:10:44;;;;;;;24.37;18.12;;;;;;;19.87;74.98;100149.95;1655352;85;20944;-81
2022/08/15 02:13:29;;;;;;;18.70;16.85;;;;;;;19.82;75.02;100149.39;1656413;85;20959;-81
2022/08/15 02:16:18;;;;;;;18.48;16.60;;;;;;;19.77;74.91;100150.98;1624623;86;21412;-82
2022/08/15 02:19:07;;;;;;;19.25;17.35;;;;;;;19.72;74.99;100145.20;1648821;85;20895;-82
2022/08/15 02:21:52;;;;;;;23.50;18.27;;;;;;;19.71;75.06;100147.45;1654668;85;20942;-82
2022/08/15 02:24:38;;;;;;;19.62;17.20;;;;;;;19.66;74.98;100149.98;1652158;85;20939;-81
2022/08/15 02:27:29;;;;;;;20.27;18.17;;;;;;;19.64;75.09;100152.70;1647386;85;21741;-81
2022/08/15 02:30:17;;;;;;;25.52;18.60;;;;;;;19.61;75.12;100148.95;1655612;85;21841;-81
2022/08/15 02:33:04;;;;;;;20.85;18.65;;;;;;;19.60;75.17;100147.73;1651093;85;20929;-81
2022/08/15 02:35:51;;;;;;;23.52;19.95;;;;;;;19.61;75.21;100150.73;1642343;86;20969;-81
2022/08/15 02:38:36;;;;;;;21.77;18.37;;;;;;;19.56;75.12;100156.72;1656435;85;21657;-81
2022/08/15 02:41:30;;;;;;;22.05;19.07;;;;;;;19.51;75.20;100158.30;1644146;84;21058;-81
2022/08/15 02:44:16;;;;;;;22.07;19.12;;;;;;;19.51;75.32;100149.13;1656518;85;21620;-81
2022/08/15 02:47:02;;;;;;;;;;;;;;;19.49;75.26;100145.25;1650736;85;21553;-81
2022/08/15 02:49:47;;;;;;;21.52;18.15;;;;;;;19.49;75.90;100143.09;1656901;85;20312;-81
2022/08/15 02:52:39;;;;;;;26.53;19.17;;;;;;;19.51;75.40;100147.81;1654013;85;21097;-81
2022/08/15 02:55:25;;;;;;;22.80;18.87;;;;;;;19.50;75.42;100143.47;1650125;85;21180;-82
2022/08/15 02:58:12;;;;;;;22.75;18.95;;;;;;;19.53;75.49;100138.55;1652613;85;21600;-81
2022/08/15 03:00:57;;;;;;;21.20;18.12;;;;;;;19.54;75.45;100141.55;1645958;85;20943;-81
2022/08/15 03:03:46;;;;;;;19.62;17.15;;;;;;;19.56;75.61;100136.58;1657675;85;20898;-81
2022/08/15 03:06:32;;;;;;;22.70;17.82;;;;;;;19.54;75.50;100137.14;1658669;85;20895;-81
2022/08/15 03:09:17;;;;;;;23.77;18.45;;;;;;;19.54;75.51;100128.44;1647710;85;21416;-81
2022/08/15 03:12:03;;;;;;;21.93;18.23;;;;;;;19.51;75.44;100125.53;1656083;85;20899;-81
2022/08/15 03:14:48;;;;;;;20.48;18.27;;;;;;;19.49;75.50;100122.97;1657057;84;20947;-82
2022/08/15 03:17:36;;;;;;;20.45;18.32;;;;;;;19.50;75.53;100120.72;1657960;85;20903;-82
2022/08/15 03:20:21;;;;;;;21.40;18.35;;;;;;;19.45;75.55;100116.69;1661261;85;20981;-82
2022/08/15 03:23:07;;;;;;;21.97;18.27;;;;;;;19.46;75.61;100117.06;1637467;85;21031;-82
2022/08/15 03:25:59;;;;;;;20.30;18.20;;;;;;;19.43;75.65;100115.94;1625315;86;20880;-82
2022/08/15 03:28:41;;;;;;;22.20;18.62;;;;;;;19.44;75.72;100117.63;1639683;85;20951;-82
2022/08/15 03:31:26;;;;;;;20.77;17.82;;;;;;;19.46;75.76;100119.22;1628881;86;21440;-82
2022/08/15 03:34:13;;;;;;;20.10;18.07;;;;;;;19.49;75.82;100114.25;1658679;84;20966;-82
2022/08/15 03:36:58;;;;;;;19.92;17.92;;;;;;;19.44;75.70;100117.63;1653397;85;20964;-82
2022/08/15 03:39:43;;;;;;;18.95;17.02;;;;;;;19.38;75.71;100120.61;1647465;85;20932;-82
2022/08/15 03:42:29;;;;;;;19.75;17.98;;;;;;;19.35;75.72;100124.73;1572052;84;5001063;-82
2022/08/15 03:45:13;;;;;;;25.87;19.13;;;;;;;19.33;75.78;100123.51;1658775;85;21298;-82
2022/08/15 03:47:58;;;;;;;20.48;18.40;;;;;;;19.34;75.87;100126.50;1648591;85;20968;-82
2022/08/15 03:50:43;;;;;;;26.60;19.85;;;;;;;19.35;75.91;100124.26;1655867;85;20960;-82
2022/08/15 03:53:34;;;;;;;20.85;18.32;;;;;;;19.37;75.88;100128.10;1649873;85;20950;-82
2022/08/15 03:56:24;;;;;;;20.92;18.32;;;;;;;19.40;76.00;100129.23;1653953;85;21397;-82
2022/08/15 03:59:09;;;;;;;20.48;18.37;;;;;;;19.44;76.02;100133.36;1656652;85;20958;-82
2022/08/15 04:01:53;;;;;;;26.87;18.65;;;;;;;19.43;75.92;100136.44;1657008;85;21529;-82
2022/08/15 04:04:40;;;;;;;20.65;18.55;;;;;;;19.46;76.05;100138.04;1653049;85;20946;-82
2022/08/15 04:07:25;;;;;;;20.88;18.35;;;;;;;19.47;76.00;100125.30;1658986;85;20970;-81
2022/08/15 04:10:15;;;;;;;24.55;18.85;;;;;;;19.45;76.06;100129.33;1660990;85;20969;-81
2022/08/15 04:13:01;;;;;;;20.55;18.32;;;;;;;19.46;76.00;100132.80;1619861;86;20951;-82
2022/08/15 04:15:46;;;;;;;20.60;18.37;;;;;;;19.48;76.08;100129.14;1633480;86;21596;-82
2022/08/15 04:18:31;;;;;;;19.70;17.42;;;;;;;19.46;76.05;100123.15;1660228;84;21141;-82
2022/08/15 04:21:16;;;;;;;22.95;17.95;;;;;;;19.47;76.10;100123.99;1666754;84;21676;-82
2022/08/15 04:24:01;;;;;;;20.62;17.60;;;;;;;19.52;76.19;100125.06;1613968;86;21114;-81
2022/08/15 04:26:46;;;;;;;19.55;17.62;;;;;;;19.53;76.08;100117.56;1675906;83;21601;-81
2022/08/15 04:29:31;;;;;;;23.32;18.85;;;;;;;19.57;76.26;100110.73;1679466;83;21508;-81
2022/08/15 04:32:16;;;;;;;22.42;18.80;;;;;;;19.64;76.29;100114.66;1669335;83;21053;-81
2022/08/15 04:35:02;;;;;;;20.65;18.48;;;;;;;19.67;76.29;100111.86;1676710;83;21104;-81
2022/08/15 04:37:47;;;;;;;20.47;18.47;;;;;;;19.71;76.27;100109.41;1671099;83;21043;-81
2022/08/15 04:40:33;;;;;;;19.42;17.42;;;;;;;19.72;76.23;100110.26;1678079;83;21024;-81
2022/08/15 04:43:21;;;;;;;21.90;17.85;;;;;;;19.76;76.26;100099.92;1675435;83;21108;-81
2022/08/15 04:46:07;;;;;;;20.30;18.17;;;;;;;19.79;76.31;100103.66;1688050;83;20988;-81
2022/08/15 04:48:52;;;;;;;20.65;18.40;;;;;;;19.83;76.29;100102.53;1666036;84;21726;-81
2022/08/15 04:51:37;;;;;;;20.82;17.85;;;;;;;19.87;76.31;100108.44;1676637;83;21611;-81
2022/08/15 04:54:22;;;;;;;19.77;17.82;;;;;;;19.90;76.28;100099.06;1679922;83;21077;-81
2022/08/15 04:57:08;;;;;;;20.92;18.05;;;;;;;19.94;76.36;100104.48;1670540;83;21545;-81
2022/08/15 04:59:54;;;;;;;18.85;17.05;;;;;;;19.95;76.31;100101.77;1667036;84;21090;-81
2022/08/15 05:02:39;;;;;;;18.10;16.17;;;;;;;19.98;76.32;100105.52;1641599;86;21156;-81
2022/08/15 05:05:25;;;;;;;19.20;17.20;;;;;;;20.05;76.48;100115.16;1633380;85;21093;-81
2022/08/15 05:08:11;;;;;;;20.27;17.53;;;;;;;20.12;76.45;100114.67;1636907;85;21104;-81
2022/08/15 05:11:01;;;;;;;21.80;17.95;;;;;;;20.19;76.46;100108.56;1633510;86;20982;-81
2022/08/15 05:13:46;;;;;;;18.77;16.05;;;;;;;20.27;76.46;100108.92;1685352;83;21482;-81
2022/08/15 05:16:33;;;;;;;18.05;16.45;;;;;;;20.35;76.48;100111.02;1694634;83;20914;-80
2022/08/15 05:19:17;;;;;;;17.73;16.12;;;;;;;20.44;76.47;100107.84;1689871;83;20953;-80
2022/08/15 05:22:02;;;;;;;18.80;15.98;;;;;;;20.54;76.48;100112.87;1693829;83;20914;-80
2022/08/15 05:24:47;;;;;;;20.23;17.32;;;;;;;20.66;76.50;100113.85;1680544;84;20951;-81
2022/08/15 05:27:32;;;;;;;21.10;17.10;;;;;;;20.87;76.51;100106.31;1675600;84;21794;-81
2022/08/15 05:30:17;;;;;;;18.67;16.67;;;;;;;21.18;76.59;100102.46;1661574;84;20930;-81
2022/08/15 05:33:12;;;;;;;23.60;17.52;;;;;;;21.60;76.63;100098.67;1681057;84;20925;-81
2022/08/15 05:36:02;;;;;;;19.48;17.37;;;;;;;21.98;76.38;100096.78;1620103;86;20973;-81
2022/08/15 05:38:58;;;;;;;18.65;15.68;;;;;;;22.38;76.40;100092.11;1659566;84;20954;-81
2022/08/15 05:42:02;;;;;;;21.77;16.40;;;;;;;22.73;76.25;100093.47;1662816;84;20954;-81
2022/08/15 05:45:04;;;;;;;17.60;15.90;;;;;;;23.14;76.33;100100.05;1650365;84;20965;-81
2022/08/15 05:48:10;;;;;;;16.80;15.05;;;;;;;23.53;75.96;100104.52;1661885;84;20921;-81
2022/08/15 05:51:08;;;;;;;;;;;;;;;23.90;76.06;100094.09;1627275;86;20944;-81
2022/08/15 05:54:13;;;;;;;14.87;13.18;;;;;;;24.36;75.70;100087.75;1660661;84;20118;-81
2022/08/15 05:57:18;;;;;;;16.75;13.90;;;;;;;24.73;75.77;100093.46;1668238;83;20966;-81
2022/08/15 06:00:09;;;;;;;15.83;13.20;;;;;;;25.13;75.49;100085.67;1672431;83;20924;-81
2022/08/15 06:03:03;;;;;;;14.95;13.40;;;;;;;25.44;75.20;100087.86;1675163;83;20914;-82
2022/08/15 06:05:52;;;;;;;14.43;13.03;;;;;;;25.78;75.13;100084.94;1666376;83;21549;-82
2022/08/15 06:08:46;;;;;;;18.82;13.55;;;;;;;26.09;75.09;100093.14;1622000;86;21030;-81
2022/08/15 06:11:36;;;;;;;15.60;12.85;;;;;;;26.41;74.41;100094.77;1650516;84;20940;-81
2022/08/15 06:14:32;;;;;;;14.98;13.25;;;;;;;26.66;74.61;100095.02;1649867;84;20964;-81
2022/08/15 06:17:40;;;;;;;17.02;13.15;;;;;;;26.90;74.27;100091.09;1644483;84;20964;-81
2022/08/15 06:20:45;;;;;;;13.75;11.83;;;;;;;27.10;74.12;100090.58;1645972;84;20920;-81
2022/08/15 06:23:58;;;;;;;12.82;11.83;;;;;;;27.45;73.97;100092.58;1647437;84;21967;-82
2022/08/15 06:27:13;;;;;;;12.68;11.43;;;;;;;27.86;73.84;100083.31;1636970;85;20982;-82
2022/08/15 06:30:12;;;;;;;17.23;11.22;;;;;;;28.19;73.70;100089.30;1644168;85;21356;-82
2022/08/15 06:33:17;;;;;;;14.50;12.15;;;;;;;28.65;73.38;100094.06;1646183;85;20963;-82
2022/08/15 06:36:19;;;;;;;13.22;11.83;;;;;;;28.86;72.40;100094.61;1648484;85;21497;-82
2022/08/15 06:39:27;;;;;;;14.35;10.28;;;;;;;29.23;72.82;100087.69;1643545;85;20936;-82
2022/08/15 06:42:42;;;;;;;12.03;10.82;;;;;;;29.65;72.47;100092.25;1627583;85;20998;-82
2022/08/15 06:45:32;;;;;;;12.85;11.08;;;;;;;30.19;72.10;100089.60;1644307;85;20960;-82
2022/08/15 06:48:22;;;;;;;11.12;10.13;;;;;;;30.53;71.56;100089.98;1646375;85;20968;-82
2022/08/15 06:51:09;;;;;;;11.75;10.55;;;;;;;30.93;71.45;100091.83;1646697;85;20980;-82
2022/08/15 06:53:58;;;;;;;11.50;10.28;;;;;;;31.33;70.75;100092.77;1642545;85;21417;-82
2022/08/15 06:56:54;;;;;;;10.65;9.83;;;;;;;31.68;70.43;100087.51;1633802;84;20987;-82
2022/08/15 06:59:54;;;;;;;11.95;10.53;;;;;;;32.09;69.80;100086.27;1614346;86;20954;-82
2022/08/15 07:03:02;;;;;;;13.83;9.73;;;;;;;32.48;69.37;100081.34;1621322;86;21524;-82
2022/08/15 07:05:55;;;;;;;11.10;10.13;;;;;;;32.75;68.75;100078.61;1613945;86;20990;-82
2022/08/15 07:09:03;;;;;;;10.15;9.15;;;;;;;33.21;68.42;100073.98;1611874;86;21412;-83
2022/08/15 07:12:02;;;;;;;13.13;8.58;;;;;;;33.50;67.67;100078.00;1617142;86;20992;-83
2022/08/15 07:15:25;;;;;;;11.50;9.00;;;;;;;33.79;67.00;100077.66;1619154;86;20997;-83
2022/08/15 07:18:23;;;;;;;10.68;9.48;;;;;;;33.87;65.40;100080.23;1618463;86;21417;-83
2022/08/15 07:21:18;;;;;;;10.25;9.35;;;;;;;34.13;65.24;100081.88;1621208;86;20976;-83
2022/08/15 07:24:09;;;;;;;11.00;9.50;;;;;;;34.55;64.83;100078.06;1626334;86;20988;-82
2022/08/15 07:27:05;;;;;;;9.85;8.93;;;;;;;34.68;63.20;100072.80;1624709;86;21004;-83
2022/08/15 07:29:58;;;;;;;9.83;8.78;;;;;;;34.68;62.33;100071.46;1623537;86;21451;-83
2022/08/15 07:32:53;;;;;;;9.60;8.70;;;;;;;35.05;59.84;100075.16;1629909;86;21022;-83
2022/08/15 07:35:38;;;;;;;9.70;8.88;;;;;;;35.01;61.00;100077.92;1622928;86;20952;-83
2022/08/15 07:38:30;;;;;;;11.07;8.47;;;;;;;34.98;59.80;100076.97;1622800;86;20984;-83
2022/08/15 07:41:32;;;;;;;13.20;9.48;;;;;;;34.55;59.66;100073.52;1644589;85;21505;-83
2022/08/15 07:44:22;;;;;;;11.65;9.43;;;;;;;34.39;59.19;100073.78;1642880;85;20934;-83
2022/08/15 07:47:20;;;;;;;12.10;8.73;;;;;;;33.88;58.68;100077.36;1643445;85;21424;-83
2022/08/15 07:50:16;;;;;;;11.95;9.88;;;;;;;33.70;58.68;100077.44;1647010;85;20964;-83
2022/08/15 07:53:18;;;;;;;11.78;10.10;;;;;;;33.54;57.91;100080.64;1643454;85;21444;-83
2022/08/15 07:56:09;;;;;;;10.13;9.25;;;;;;;33.29;57.73;100079.25;1614934;86;20985;-83
2022/08/15 07:59:12;;;;;;;10.13;9.25;;;;;;;33.22;57.54;100078.33;1614496;86;20953;-83
2022/08/15 08:02:20;;;;;;;11.83;9.58;;;;;;;33.28;56.94;100080.77;1612212;86;20977;-83
2022/08/15 08:05:06;;;;;;;11.12;9.58;;;;;;;33.35;56.66;100077.17;1613127;86;20906;-83
2022/08/15 08:07:53;;;;;;;10.90;9.00;;;;;;;33.35;56.03;100086.55;1613046;86;21969;-82
2022/08/15 08:10:53;;;;;;;10.80;9.78;;;;;;;33.39;55.87;100078.98;1613692;86;21799;-82
2022/08/15 08:13:46;;;;;;;11.85;9.53;;;;;;;33.97;55.31;100083.45;1619320;86;20929;-82
2022/08/15 08:16:44;;;;;;;10.13;9.10;;;;;;;34.80;54.61;100081.52;1611948;86;20933;-82
2022/08/15 08:20:15;;;;;;;10.78;9.15;;;;;;;35.74;53.99;100084.55;1596422;86;20993;-82
2022/08/15 08:23:17;;;;;;;10.38;9.20;;;;;;;36.53;51.89;100091.19;1610647;86;20953;-83
2022/08/15 08:26:26;;;;;;;12.35;10.60;;;;;;;36.68;52.45;100087.26;1618770;86;20965;-82
2022/08/15 08:29:28;;;;;;;12.28;10.68;;;;;;;37.51;52.03;100088.08;1652735;84;21568;-82
2022/08/15 08:32:30;;;;;;;13.05;9.35;;;;;;;38.33;50.88;100081.37;1655716;84;20946;-82
2022/08/15 08:35:38;;;;;;;10.88;9.78;;;;;;;39.00;50.58;100081.11;1653464;84;20901;-83
2022/08/15 08:38:36;;;;;;;10.65;9.85;;;;;;;39.46;49.38;100078.99;1655433;84;21410;-83
2022/08/15 08:41:36;;;;;;;12.00;9.60;;;;;;;39.60;49.39;100084.55;1640076;84;21431;-82
2022/08/15 08:44:47;;;;;;;15.38;10.72;;;;;;;40.23;48.44;100073.29;1652038;84;21045;-83
2022/08/15 08:47:47;;;;;;;10.75;9.75;;;;;;;40.51;47.84;100081.63;1652877;84;21608;-83
2022/08/15 08:50:47;;;;;;;11.75;10.68;;;;;;;40.66;47.05;100075.20;1653722;84;21085;-83
2022/08/15 08:53:43;;;;;;;12.60;9.78;;;;;;;40.56;46.34;100078.20;1653494;84;21106;-83
2022/08/15 08:56:33;;;;;;;11.68;10.32;;;;;;;39.97;44.66;100075.35;1658453;84;21071;-83
2022/08/15 08:59:36;;;;;;;11.85;10.18;;;;;;;39.37;45.57;100074.41;1654267;84;21625;-83
2022/08/15 09:02:29;;;;;;;10.80;9.90;;;;;;;38.37;45.45;100070.95;1651706;84;21506;-83
2022/08/15 09:05:35;;;;;;;11.80;10.75;;;;;;;37.21;45.49;100069.72;1651006;84;21521;-83
2022/08/15 09:08:37;;;;;;;11.65;10.45;;;;;;;36.11;45.05;100064.39;1652538;84;21489;-83
2022/08/15 09:11:33;;;;;;;11.70;10.35;;;;;;;34.83;45.10;100062.84;1651838;84;21068;-83
2022/08/15 09:14:33;;;;;;;12.00;10.78;;;;;;;33.64;44.79;100068.80;1562457;84;21747;-83
2022/08/15 09:17:21;;;;;;;12.18;10.95;;;;;;;32.82;45.03;100056.79;1529671;91;21137;-83
2022/08/15 09:20:14;;;;;;;14.47;11.60;;;;;;;32.29;45.14;100059.89;1529488;91;21097;-82
2022/08/15 09:23:01;;;;;;;11.73;10.40;;;;;;;31.81;44.85;100051.66;1535107;91;21153;-83
2022/08/15 09:26:21;;;;;;;15.10;11.20;;;;;;;31.37;45.14;100056.68;1535288;89;21119;-79
2022/08/15 09:29:34;;;;;;;17.07;11.70;;;;;;;31.13;45.14;100048.27;1534407;91;21113;-83
2022/08/15 09:32:30;;;;;;;12.45;11.28;;;;;;;30.85;45.14;100054.45;1534788;91;21146;-80
2022/08/15 09:35:32;;;;;;;13.10;11.80;;;;;;;30.37;45.23;100045.45;1537932;91;21206;-80
2022/08/15 09:39:13;;;;;;;13.45;12.07;;;;;;;30.03;45.22;100042.09;1532906;90;22296;-83
2022/08/15 09:42:43;;;;;;;15.43;13.03;;;;;;;29.69;45.53;100032.30;1538859;91;21125;-83
2022/08/15 09:45:55;;;;;;;12.90;11.68;;;;;;;29.61;45.78;100035.80;1538227;91;21107;-82
2022/08/15 09:48:54;;;;;;;14.73;12.88;;;;;;;29.55;45.87;100033.78;1511660;91;21668;-82
2022/08/15 09:52:18;;;;;;;14.78;13.48;;;;;;;29.44;46.00;100033.23;1538607;90;21158;-83
2022/08/15 09:55:31;;;;;;;13.93;12.60;;;;;;;29.41;46.21;100036.18;1534657;91;21086;-83
2022/08/15 09:58:27;;;;;;;15.30;13.50;;;;;;;29.32;46.29;100029.98;1535068;91;21166;-83
2022/08/15 10:01:23;;;;;;;14.53;12.13;;;;;;;29.22;46.56;100035.42;1535188;91;21075;-83
2022/08/15 10:04:13;;;;;;;13.83;12.33;;;;;;;29.12;46.68;100022.71;1534127;91;21171;-83
2022/08/15 10:07:06;;;;;;;14.07;11.48;;;;;;;29.10;46.85;100018.57;1535704;91;22488;-83
2022/08/15 10:10:14;;;;;;;13.32;11.57;;;;;;;29.06;46.90;100010.06;1533140;91;21142;-79
2022/08/15 10:13:29;;;;;;;14.50;12.45;;;;;;;29.04;47.12;100011.22;1533287;90;21142;-80
2022/08/15 10:16:42;;;;;;;13.30;11.85;;;;;;;29.09;47.23;100015.08;1477721;95;21662;-80
2022/08/15 10:19:38;;;;;;;12.63;11.45;;;;;;;29.14;47.32;99999.42;1499415;93;21224;-80
2022/08/15 10:22:29;;;;;;;12.40;11.38;;;;;;;29.14;47.37;99999.92;1497874;93;21173;-79
2022/08/15 10:25:36;;;;;;;11.80;10.45;;;;;;;29.14;47.48;99998.59;1491493;93;21789;-80
2022/08/15 10:28:24;;;;;;;11.18;9.93;;;;;;;29.13;47.49;99988.94;1499438;93;21121;-79
2022/08/15 10:31:17;;;;;;;12.13;10.60;;;;;;;29.18;47.69;99990.12;1500026;94;21144;-79
2022/08/15 10:34:03;;;;;;;11.93;10.72;;;;;;;29.23;47.67;99990.48;1492267;94;21112;-78
2022/08/15 10:37:17;;;;;;;17.12;10.40;;;;;;;29.32;47.88;99980.70;1498637;93;21279;-79
2022/08/15 10:40:17;;;;;;;12.88;10.63;;;;;;;29.45;47.92;99985.61;1490489;94;21180;-79
2022/08/15 10:43:38;;;;;;;11.63;10.00;;;;;;;29.60;48.00;99990.16;1500008;93;21160;-79
2022/08/15 10:46:29;;;;;;;12.05;10.28;;;;;;;29.77;47.98;99987.52;1505257;92;21190;-79
2022/08/15 10:49:27;;;;;;;12.07;10.43;;;;;;;29.75;47.84;99981.02;1534331;91;21122;-79
2022/08/15 10:52:34;;;;;;;10.68;9.73;;;;;;;29.69;47.95;99972.34;1536346;91;21123;-79
2022/08/15 10:55:28;;;;;;;15.75;10.25;;;;;;;29.67;47.96;99972.16;1533708;91;21126;-79
2022/08/15 10:58:32;;;;;;;11.70;10.03;;;;;;;29.53;47.60;99974.48;1510659;92;21138;-79
2022/08/15 11:01:24;;;;;;;10.78;9.78;;;;;;;29.36;47.88;99968.73;1536617;91;22484;-81
2022/08/15 11:04:30;;;;;;;10.45;9.35;;;;;;;29.33;48.02;99973.05;1534524;91;21770;-82
2022/08/15 11:07:33;;;;;;;11.00;8.98;;;;;;;29.37;48.13;99973.06;1520153;91;21115;-81
2022/08/15 11:10:22;;;;;;;9.58;8.45;;;;;;;29.47;48.03;99958.31;1532655;91;21148;-80
2022/08/15 11:13:12;;;;;;;12.88;8.13;;;;;;;29.62;48.05;99956.20;1535575;91;21063;-80
2022/08/15 11:16:08;;;;;;;9.38;8.45;;;;;;;29.65;47.71;99951.01;1535083;91;21314;-83
2022/08/15 11:18:57;;;;;;;13.20;8.33;;;;;;;29.70;47.39;99950.02;1535341;89;21090;-82
2022/08/15 11:21:52;;;;;;;11.20;8.33;;;;;;;29.74;47.56;99943.36;1515594;91;21162;-83
2022/08/15 11:24:40;;;;;;;8.75;7.80;;;;;;;29.82;47.66;99942.55;1532063;91;21130;-83
2022/08/15 11:27:26;;;;;;;11.05;8.88;;;;;;;29.87;47.40;99950.38;1532050;91;21571;-81
2022/08/15 11:30:21;;;;;;;10.68;8.00;;;;;;;29.81;47.35;99944.88;1536455;91;21088;-81
2022/08/15 11:33:27;;;;;;;14.90;8.78;;;;;;;29.78;47.32;99945.20;1537869;91;21052;-81
2022/08/15 11:36:24;;;;;;;;;;;;;;;29.65;47.51;99935.85;1535876;91;21570;-82
2022/08/15 11:39:18;;;;;;;8.98;7.30;;;;;;;29.62;47.59;99939.37;1536122;90;20222;-78
2022/08/15 11:42:06;;;;;;;11.05;7.90;;;;;;;29.65;47.72;99930.52;1538384;89;21154;-78
2022/08/15 11:45:15;;;;;;;8.63;7.33;;;;;;;29.70;47.42;99917.20;1533248;90;21150;-80
2022/08/15 11:48:01;;;;;;;10.70;7.42;;;;;;;29.70;47.43;99914.54;1528071;91;22481;-81
2022/08/15 11:51:09;;;;;;;8.38;7.55;;;;;;;29.70;47.36;99910.05;1535604;91;21086;-81
2022/08/15 11:54:14;;;;;;;12.98;8.15;;;;;;;29.74;47.19;99909.22;1588508;85;355228;-81
2022/08/15 11:57:04;;;;;;;12.53;6.90;;;;;;;29.82;47.18;99903.39;1622547;86;21092;-81
2022/08/15 12:00:07;;;;;;;8.18;6.87;;;;;;;29.97;46.95;99898.23;1622777;86;21136;-81
2022/08/15 12:02:54;;;;;;;8.28;7.45;;;;;;;30.09;46.95;99899.61;1623953;86;21045;-79
2022/08/15 12:05:40;;;;;;;12.58;8.33;;;;;;;30.26;46.63;99909.73;1608378;87;34253;-79
2022/08/15 12:08:32;;;;;;;9.13;7.95;;;;;;;30.33;46.56;99901.89;1629179;86;21104;-79
2022/08/15 12:11:24;;;;;;;13.83;7.65;;;;;;;30.47;46.78;99891.86;1625333;86;21057;-79
2022/08/15 12:14:18;;;;;;;12.95;7.92;;;;;;;30.65;46.48;99897.02;1612626;86;21054;-79
2022/08/15 12:17:05;;;;;;;8.55;7.58;;;;;;;30.69;45.80;99893.81;1613913;86;21093;-79
2022/08/15 12:19:54;;;;;;;13.13;7.85;;;;;;;30.65;46.04;99884.52;1615855;86;21070;-80
2022/08/15 12:22:42;;;;;;;8.60;7.72;;;;;;;30.65;45.83;99896.52;1613066;86;21150;-79
2022/08/15 12:25:27;;;;;;;16.77;7.75;;;;;;;30.55;45.54;99906.02;1615314;84;21089;-79
2022/08/15 12:28:12;;;;;;;10.10;7.10;;;;;;;30.33;45.24;99903.22;1659491;84;21113;-81
2022/08/15 12:31:04;;;;;;;10.35;7.87;;;;;;;30.12;45.59;99899.27;1663144;84;21108;-81
2022/08/15 12:34:12;;;;;;;8.38;7.58;;;;;;;29.92;45.47;99896.07;1661678;84;21092;-81
2022/08/15 12:37:01;;;;;;;13.13;7.87;;;;;;;29.73;45.48;99908.88;1662364;84;21168;-81
2022/08/15 12:39:51;;;;;;;11.05;7.45;;;;;;;29.55;45.55;99914.38;1665037;84;21104;-81
2022/08/15 12:42:37;;;;;;;12.23;8.10;;;;;;;29.26;45.84;99904.94;1629290;84;21592;-81
2022/08/15 12:45:22;;;;;;;15.72;8.03;;;;;;;28.99;46.19;99896.72;1659934;84;21089;-82
2022/08/15 12:48:25;;;;;;;11.33;8.20;;;;;;;28.95;46.39;99895.87;1664469;84;21116;-81
2022/08/15 12:51:11;;;;;;;14.05;8.43;;;;;;;28.87;46.58;99895.34;1662276;84;22280;-81
2022/08/15 12:53:57;;;;;;;9.93;8.15;;;;;;;28.85;46.86;99889.83;1659828;84;21584;-81
2022/08/15 12:56:43;;;;;;;8.60;7.67;;;;;;;28.90;47.11;99886.20;1656887;84;21691;-81
2022/08/15 12:59:28;;;;;;;10.82;8.05;;;;;;;29.05;47.38;99885.92;1658486;84;21649;-81
2022/08/15 13:02:14;;;;;;;9.73;7.35;;;;;;;29.23;47.29;99883.12;1647052;84;21163;-81
2022/08/15 13:05:00;;;;;;;;;;;;;;;29.43;47.25;99882.38;1654038;84;21571;-81
2022/08/15 13:07:45;;;;;;;7.50;6.75;;;;;;;29.62;47.23;99878.92;1659794;84;20480;-81
2022/08/15 13:10:30;;;;;;;12.35;7.28;;;;;;;29.77;47.23;99876.91;1658393;84;21117;-81
2022/08/15 13:13:16;;;;;;;7.40;6.80;;;;;;;29.90;47.19;99874.58;1657511;84;21160;-78
2022/08/15 13:16:08;;;;;;;11.63;6.55;;;;;;;29.96;47.18;99868.08;1658820;84;21501;-83
2022/08/15 13:18:54;;;;;;;9.93;6.55;;;;;;;30.06;47.20;99865.77;1656249;84;21080;-86